Time;durP1;ratioP1;P1;durP2;ratioP2;P2;SDS_P1;SDS_P2;PMS_P1;PMS_P2;Temp;Humidity;BMP_temperature;BMP_pressure;BME280_temperature;BME280_humidity;BME280_pressure;Samples;Min_cycle;Max_cycle;Signal;HPM_P1;HPM_P2
2023/09/07 00:00:45;;;;;;;6.72;4.78;;;;;;;;;;2090265;28;20044;-58
2023/09/07 00:01:46;;;;;;;7.40;4.50;;;;;;;;;;2091326;28;20045;-58
2023/09/07 00:02:46;;;;;;;7.50;4.93;;;;;;;;;;2091513;28;20045;-57
2023/09/07 00:03:47;;;;;;;6.75;4.40;;;;;;;;;;2091017;28;20037;-56
2023/09/07 00:04:49;;;;;;;6.95;4.95;;;;;;;;;;2090896;28;20045;-57
2023/09/07 00:05:50;;;;;;;6.63;4.90;;;;;;;;;;2091796;28;20056;-58
2023/09/07 00:06:51;;;;;;;6.43;4.57;;;;;;;;;;2091318;28;20458;-57
2023/09/07 00:07:51;;;;;;;6.25;5.05;;;;;;;;;;2091293;28;20431;-57
2023/09/07 00:08:52;;;;;;;6.80;4.82;;;;;;;;;;2091215;28;20049;-57
2023/09/07 00:09:53;;;;;;;7.25;4.63;;;;;;;;;;2091444;28;20071;-57
2023/09/07 00:10:54;;;;;;;6.13;4.70;;;;;;;;;;2091433;28;20373;-58
2023/09/07 00:11:54;;;;;;;9.30;5.10;;;;;;;;;;2091444;28;20049;-57
2023/09/07 00:12:55;;;;;;;6.80;5.30;;;;;;;;;;2091452;28;20048;-56
2023/09/07 00:13:58;;;;;;;7.72;5.30;;;;;;;;;;2091622;28;20053;-58
2023/09/07 00:14:59;;;;;;;6.90;4.80;;;;;;;;;;2091292;28;20040;-57
2023/09/07 00:16:00;;;;;;;9.30;5.78;;;;;;;;;;2091258;28;20037;-57
2023/09/07 00:17:02;;;;;;;9.07;5.38;;;;;;;;;;2091272;28;20041;-58
2023/09/07 00:18:03;;;;;;;6.05;4.75;;;;;;;;;;2091405;28;20405;-58
2023/09/07 00:19:04;;;;;;;8.00;4.93;;;;;;;;;;2092293;28;20040;-58
2023/09/07 00:20:11;;;;;;;6.97;4.65;;;;;;;;;;2091427;28;20393;-58
2023/09/07 00:21:12;;;;;;;6.47;4.70;;;;;;;;;;2091097;28;20052;-58
2023/09/07 00:22:13;;;;;;;6.45;5.38;;;;;;;;;;2091467;28;20033;-58
2023/09/07 00:23:13;;;;;;;7.07;5.10;;;;;;;;;;2091566;28;20036;-58
2023/09/07 00:24:16;;;;;;;8.05;5.15;;;;;;;;;;2091539;28;20041;-58
2023/09/07 00:25:16;;;;;;;8.68;5.50;;;;;;;;;;2091357;28;20045;-58
2023/09/07 00:26:18;;;;;;;6.22;4.90;;;;;;;;;;2091367;28;20510;-58
2023/09/07 00:27:19;;;;;;;6.75;4.97;;;;;;;;;;2091311;28;20048;-58
2023/09/07 00:28:20;;;;;;;8.68;5.15;;;;;;;;;;2091369;28;20052;-58
2023/09/07 00:29:22;;;;;;;8.90;5.55;;;;;;;;;;2091420;28;20056;-58
2023/09/07 00:30:22;;;;;;;6.70;5.72;;;;;;;;;;2091443;28;20048;-58
2023/09/07 00:31:23;;;;;;;8.38;4.95;;;;;;;;;;2091348;28;20158;-58
2023/09/07 00:32:24;;;;;;;7.13;5.30;;;;;;;;;;2091241;28;20041;-58
2023/09/07 00:33:24;;;;;;;7.03;5.38;;;;;;;;;;2091280;28;20036;-58
2023/09/07 00:34:25;;;;;;;7.03;5.43;;;;;;;;;;2091079;28;20033;-58
2023/09/07 00:35:26;;;;;;;8.07;5.35;;;;;;;;;;2090354;28;20072;-58
2023/09/07 00:36:27;;;;;;;7.07;5.20;;;;;;;;;;2090479;28;20048;-59
2023/09/07 00:37:27;;;;;;;7.75;5.40;;;;;;;;;;2090387;28;20045;-58
2023/09/07 00:38:28;;;;;;;9.32;5.45;;;;;;;;;;2090439;28;20401;-58
2023/09/07 00:39:29;;;;;;;6.93;5.03;;;;;;;;;;2091204;28;20541;-58
2023/09/07 00:40:30;;;;;;;7.45;5.40;;;;;;;;;;2091438;28;20029;-56
2023/09/07 00:41:30;;;;;;;6.90;5.22;;;;;;;;;;2082373;28;20041;-58
2023/09/07 00:42:31;;;;;;;6.45;5.53;;;;;;;;;;2074209;28;20042;-56
2023/09/07 00:43:32;;;;;;;6.85;5.18;;;;;;;;;;2082326;28;20409;-56
2023/09/07 00:44:33;;;;;;;7.07;5.22;;;;;;;;;;2082514;28;20037;-55
2023/09/07 00:45:33;;;;;;;6.63;5.53;;;;;;;;;;2090270;28;20073;-57
2023/09/07 00:46:34;;;;;;;6.88;5.32;;;;;;;;;;2090567;28;20044;-55
2023/09/07 00:47:37;;;;;;;7.40;5.28;;;;;;;;;;2090823;28;20028;-57
2023/09/07 00:48:38;;;;;;;7.05;5.50;;;;;;;;;;2090654;28;20409;-57
2023/09/07 00:49:39;;;;;;;7.30;5.25;;;;;;;;;;2090684;28;20025;-57
2023/09/07 00:50:40;;;;;;;9.60;5.47;;;;;;;;;;2082505;28;20037;-58
2023/09/07 00:51:41;;;;;;;9.75;5.90;;;;;;;;;;2083174;28;20049;-57
2023/09/07 00:52:42;;;;;;;8.93;6.07;;;;;;;;;;2090273;28;20528;-57
2023/09/07 00:53:43;;;;;;;8.20;6.15;;;;;;;;;;2090867;28;20481;-58
2023/09/07 00:54:44;;;;;;;7.07;5.68;;;;;;;;;;2073582;28;20033;-58
2023/09/07 00:55:44;;;;;;;7.63;5.43;;;;;;;;;;2082533;28;20037;-57
2023/09/07 00:56:45;;;;;;;7.13;5.93;;;;;;;;;;2090247;28;20412;-58
2023/09/07 00:57:46;;;;;;;9.80;6.07;;;;;;;;;;2091185;28;20021;-57
2023/09/07 00:58:47;;;;;;;8.35;6.05;;;;;;;;;;2082371;28;20045;-57
2023/09/07 00:59:47;;;;;;;11.85;6.38;;;;;;;;;;2074426;28;20108;-57
2023/09/07 01:00:49;;;;;;;9.35;5.63;;;;;;;;;;2090735;28;20165;-57
2023/09/07 01:01:50;;;;;;;7.72;6.45;;;;;;;;;;2082243;28;20448;-58
2023/09/07 01:02:52;;;;;;;7.90;6.30;;;;;;;;;;2074265;28;20041;-58
2023/09/07 01:03:56;;;;;;;8.88;6.25;;;;;;;;;;2082260;28;20044;-58
2023/09/07 01:04:57;;;;;;;8.98;6.30;;;;;;;;;;2090526;28;20052;-57
2023/09/07 01:06:02;;;;;;;7.68;6.25;;;;;;;;;;2090987;28;20514;-58
2023/09/07 01:07:05;;;;;;;12.68;6.20;;;;;;;;;;2090268;28;20045;-58
2023/09/07 01:08:18;;;;;;;7.25;5.75;;;;;;;;;;2090521;28;20040;-58
2023/09/07 01:09:19;;;;;;;8.57;6.47;;;;;;;;;;2091106;28;20040;-58
2023/09/07 01:10:22;;;;;;;7.55;6.50;;;;;;;;;;2090742;28;20052;-58
2023/09/07 01:11:23;;;;;;;8.00;6.68;;;;;;;;;;2090132;28;20037;-58
2023/09/07 01:12:25;;;;;;;8.27;5.60;;;;;;;;;;2082027;28;20071;-58
2023/09/07 01:13:26;;;;;;;6.80;5.63;;;;;;;;;;2090481;28;20036;-59
2023/09/07 01:14:26;;;;;;;7.47;6.25;;;;;;;;;;2090374;28;20041;-58
2023/09/07 01:15:27;;;;;;;11.68;5.90;;;;;;;;;;2090038;28;20048;-58
2023/09/07 01:16:28;;;;;;;8.98;6.07;;;;;;;;;;2091088;28;20109;-58
2023/09/07 01:17:29;;;;;;;8.27;6.85;;;;;;;;;;2090933;28;20036;-57
2023/09/07 01:18:30;;;;;;;7.30;5.82;;;;;;;;;;2090024;28;20060;-58
2023/09/07 01:19:30;;;;;;;9.45;6.70;;;;;;;;;;2090428;28;20045;-58
2023/09/07 01:20:31;;;;;;;8.63;5.88;;;;;;;;;;2090698;28;20116;-58
2023/09/07 01:21:35;;;;;;;8.18;6.00;;;;;;;;;;2090671;28;20128;-58
2023/09/07 01:22:37;;;;;;;7.75;6.00;;;;;;;;;;2090409;28;20045;-58
2023/09/07 01:23:39;;;;;;;8.65;5.55;;;;;;;;;;2074170;28;20042;-58
2023/09/07 01:24:39;;;;;;;10.57;6.55;;;;;;;;;;2082329;28;20029;-58
2023/09/07 01:25:40;;;;;;;9.82;5.80;;;;;;;;;;2090474;28;20070;-58
2023/09/07 01:26:42;;;;;;;6.68;5.75;;;;;;;;;;2082017;28;20052;-58
2023/09/07 01:27:43;;;;;;;8.23;6.03;;;;;;;;;;2090256;28;20033;-58
2023/09/07 01:28:43;;;;;;;8.32;5.60;;;;;;;;;;2073824;28;20042;-56
2023/09/07 01:29:44;;;;;;;7.00;5.85;;;;;;;;;;2074039;28;20574;-58
2023/09/07 01:30:45;;;;;;;8.70;5.88;;;;;;;;;;2082269;28;20483;-58
2023/09/07 01:31:46;;;;;;;9.10;6.50;;;;;;;;;;2081123;28;20060;-58
2023/09/07 01:32:46;;;;;;;7.90;6.47;;;;;;;;;;2090310;28;20465;-56
2023/09/07 01:33:47;;;;;;;9.05;5.90;;;;;;;;;;2098193;28;20036;-57
2023/09/07 01:34:49;;;;;;;8.95;6.40;;;;;;;;;;2098527;28;20027;-58
2023/09/07 01:35:49;;;;;;;8.60;6.47;;;;;;;;;;2090189;28;20508;-58
2023/09/07 01:36:50;;;;;;;8.13;6.65;;;;;;;;;;2090181;28;20071;-58
2023/09/07 01:37:51;;;;;;;7.97;6.47;;;;;;;;;;2081990;28;20132;-58
2023/09/07 01:38:51;;;;;;;8.98;6.05;;;;;;;;;;2090201;28;20041;-58
2023/09/07 01:39:52;;;;;;;8.35;6.05;;;;;;;;;;2091048;28;20045;-58
2023/09/07 01:40:53;;;;;;;8.82;5.88;;;;;;;;;;2090248;28;20040;-56
2023/09/07 01:41:56;;;;;;;10.55;6.60;;;;;;;;;;2090241;28;20464;-58
2023/09/07 01:42:57;;;;;;;9.32;7.25;;;;;;;;;;2090440;28;20045;-57
2023/09/07 01:43:58;;;;;;;9.30;6.38;;;;;;;;;;2090408;28;20037;-58
2023/09/07 01:44:59;;;;;;;8.95;6.28;;;;;;;;;;2090558;28;20044;-58
2023/09/07 01:45:59;;;;;;;11.43;7.18;;;;;;;;;;2090690;28;20381;-57
2023/09/07 01:47:00;;;;;;;7.13;6.43;;;;;;;;;;2089893;28;20033;-58
2023/09/07 01:48:03;;;;;;;8.02;6.60;;;;;;;;;;2082027;28;20037;-58
2023/09/07 01:49:04;;;;;;;8.40;6.85;;;;;;;;;;2081877;28;20417;-58
2023/09/07 01:50:05;;;;;;;11.43;6.28;;;;;;;;;;2090124;28;20041;-58
2023/09/07 01:51:06;;;;;;;7.47;6.32;;;;;;;;;;2091111;28;20041;-58
2023/09/07 01:52:07;;;;;;;8.90;6.97;;;;;;;;;;2090094;28;20045;-58
2023/09/07 01:53:08;;;;;;;8.52;6.40;;;;;;;;;;2089800;28;20494;-59
2023/09/07 01:54:09;;;;;;;9.50;7.70;;;;;;;;;;2090130;28;20127;-58
2023/09/07 01:55:10;;;;;;;10.15;6.95;;;;;;;;;;2089978;28;20040;-58
2023/09/07 01:56:11;;;;;;;8.15;7.30;;;;;;;;;;2089714;28;20037;-58
2023/09/07 01:57:12;;;;;;;7.82;5.85;;;;;;;;;;2090368;28;20524;-58
2023/09/07 01:58:12;;;;;;;6.55;5.57;;;;;;;;;;2081597;28;20056;-59
2023/09/07 01:59:13;;;;;;;9.75;6.55;;;;;;;;;;2090149;28;20155;-58
2023/09/07 02:00:14;;;;;;;10.85;6.60;;;;;;;;;;2089528;28;20460;-58
2023/09/07 02:01:25;;;;;;;8.93;6.20;;;;;;;;;;2081473;28;20041;-58
2023/09/07 02:02:26;;;;;;;9.07;6.78;;;;;;;;;;2090058;28;20046;-58
2023/09/07 02:03:27;;;;;;;11.43;6.88;;;;;;;;;;2090654;28;20028;-58
2023/09/07 02:04:27;;;;;;;10.55;6.93;;;;;;;;;;2089680;28;20158;-58
2023/09/07 02:05:28;;;;;;;12.38;7.10;;;;;;;;;;2089942;28;20036;-58
2023/09/07 02:06:29;;;;;;;9.02;6.45;;;;;;;;;;2090589;28;20033;-58
2023/09/07 02:07:30;;;;;;;8.43;6.63;;;;;;;;;;2090527;28;20057;-58
2023/09/07 02:08:31;;;;;;;15.18;7.40;;;;;;;;;;2081703;28;20405;-58
2023/09/07 02:09:32;;;;;;;11.13;7.25;;;;;;;;;;2081745;28;20041;-58
2023/09/07 02:10:33;;;;;;;7.75;6.40;;;;;;;;;;2090226;28;20059;-58
2023/09/07 02:11:34;;;;;;;8.52;6.80;;;;;;;;;;2090238;28;20048;-58
2023/09/07 02:12:34;;;;;;;9.73;7.05;;;;;;;;;;2089805;28;20051;-58
2023/09/07 02:13:35;;;;;;;9.85;7.43;;;;;;;;;;2081482;28;20520;-58
2023/09/07 02:14:36;;;;;;;9.50;7.18;;;;;;;;;;2090377;28;20044;-56
2023/09/07 02:15:37;;;;;;;10.13;7.40;;;;;;;;;;2090595;28;20171;-56
2023/09/07 02:16:38;;;;;;;8.13;6.68;;;;;;;;;;2089963;28;20033;-56
2023/09/07 02:17:39;;;;;;;8.45;7.47;;;;;;;;;;2081891;28;20046;-58
2023/09/07 02:18:43;;;;;;;8.60;7.65;;;;;;;;;;2089619;28;20100;-56
2023/09/07 02:19:44;;;;;;;8.25;6.82;;;;;;;;;;2082010;28;20041;-58
2023/09/07 02:20:45;;;;;;;9.73;7.57;;;;;;;;;;2089316;28;20068;-58
2023/09/07 02:21:46;;;;;;;11.70;8.20;;;;;;;;;;2081961;28;20455;-58
2023/09/07 02:22:47;;;;;;;8.95;7.28;;;;;;;;;;2089515;28;20033;-59
2023/09/07 02:23:48;;;;;;;10.00;8.23;;;;;;;;;;2088680;28;20037;-59
2023/09/07 02:24:49;;;;;;;9.23;7.78;;;;;;;;;;2089855;28;20394;-58
2023/09/07 02:25:49;;;;;;;9.18;8.02;;;;;;;;;;2089837;28;20040;-56
2023/09/07 02:26:50;;;;;;;9.93;8.05;;;;;;;;;;2081342;28;20046;-58
2023/09/07 02:27:51;;;;;;;8.65;7.72;;;;;;;;;;2090424;28;20508;-58
2023/09/07 02:28:52;;;;;;;9.65;7.78;;;;;;;;;;2089515;28;20056;-58
2023/09/07 02:29:53;;;;;;;9.30;7.82;;;;;;;;;;2089882;28;20040;-58
2023/09/07 02:30:53;;;;;;;10.00;8.05;;;;;;;;;;2089935;28;20375;-58
2023/09/07 02:31:54;;;;;;;9.38;7.82;;;;;;;;;;2090338;28;20170;-57
2023/09/07 02:32:57;;;;;;;11.10;8.75;;;;;;;;;;2089626;28;20045;-58
2023/09/07 02:33:58;;;;;;;10.68;7.93;;;;;;;;;;2081593;28;20041;-58
2023/09/07 02:34:59;;;;;;;8.80;7.22;;;;;;;;;;2081471;28;20464;-58
2023/09/07 02:35:59;;;;;;;9.90;7.93;;;;;;;;;;2089811;28;20155;-57
2023/09/07 02:37:00;;;;;;;9.40;8.10;;;;;;;;;;2081487;28;20038;-58
2023/09/07 02:38:01;;;;;;;9.25;7.68;;;;;;;;;;2081492;28;20040;-58
2023/09/07 02:39:03;;;;;;;10.85;7.93;;;;;;;;;;2081417;28;20247;-57
2023/09/07 02:40:07;;;;;;;9.82;7.30;;;;;;;;;;2090080;28;20041;-58
2023/09/07 02:41:08;;;;;;;10.02;7.85;;;;;;;;;;2089421;28;20044;-58
2023/09/07 02:42:09;;;;;;;8.57;7.68;;;;;;;;;;2089130;28;20425;-58
2023/09/07 02:43:10;;;;;;;8.98;7.70;;;;;;;;;;2090626;28;20044;-58
2023/09/07 02:44:10;;;;;;;11.13;7.82;;;;;;;;;;2089739;28;20393;-58
2023/09/07 02:45:12;;;;;;;10.85;8.25;;;;;;;;;;2089327;28;20128;-58
2023/09/07 02:46:12;;;;;;;11.40;8.57;;;;;;;;;;2089531;28;20381;-58
2023/09/07 02:47:13;;;;;;;10.82;8.68;;;;;;;;;;2089615;28;20065;-58
2023/09/07 02:48:14;;;;;;;13.05;8.73;;;;;;;;;;2081250;28;20041;-57
2023/09/07 02:49:15;;;;;;;10.75;9.10;;;;;;;;;;2081510;28;20057;-57
2023/09/07 02:50:17;;;;;;;10.30;8.60;;;;;;;;;;2081688;28;20393;-57
2023/09/07 02:51:18;;;;;;;9.48;8.32;;;;;;;;;;2089719;28;20041;-58
2023/09/07 02:52:19;;;;;;;10.20;8.73;;;;;;;;;;2089546;28;20128;-57
2023/09/07 02:53:19;;;;;;;12.60;8.73;;;;;;;;;;2089752;28;20115;-58
2023/09/07 02:54:20;;;;;;;12.13;8.40;;;;;;;;;;2081692;28;20060;-58
2023/09/07 02:55:21;;;;;;;10.35;8.48;;;;;;;;;;2081183;28;20087;-58
2023/09/07 02:56:21;;;;;;;12.60;8.52;;;;;;;;;;2089686;28;20040;-58
2023/09/07 02:57:22;;;;;;;13.32;8.63;;;;;;;;;;2089654;28;20443;-58
2023/09/07 02:58:23;;;;;;;11.35;8.15;;;;;;;;;;2081274;28;20470;-57
2023/09/07 02:59:24;;;;;;;12.07;8.50;;;;;;;;;;2089620;28;20040;-58
2023/09/07 03:00:25;;;;;;;12.00;8.15;;;;;;;;;;2081587;28;20498;-58
2023/09/07 03:01:26;;;;;;;11.90;8.50;;;;;;;;;;2081604;28;20433;-58
2023/09/07 03:02:27;;;;;;;9.65;8.50;;;;;;;;;;2081396;28;20067;-58
2023/09/07 03:03:29;;;;;;;9.65;7.78;;;;;;;;;;2089611;28;20033;-57
2023/09/07 03:04:30;;;;;;;9.35;7.97;;;;;;;;;;2089918;28;20053;-58
2023/09/07 03:05:31;;;;;;;10.23;7.95;;;;;;;;;;2089821;28;20041;-58
2023/09/07 03:06:32;;;;;;;8.60;7.00;;;;;;;;;;2088791;28;20045;-57
2023/09/07 03:07:33;;;;;;;12.15;7.72;;;;;;;;;;2081303;28;20045;-57
2023/09/07 03:08:34;;;;;;;9.30;7.13;;;;;;;;;;2089227;28;20052;-57
2023/09/07 03:09:35;;;;;;;10.25;7.90;;;;;;;;;;2080942;28;20092;-58
2023/09/07 03:10:36;;;;;;;12.82;7.50;;;;;;;;;;2081401;28;20083;-58
2023/09/07 03:11:37;;;;;;;8.77;7.13;;;;;;;;;;2081651;28;20033;-58
2023/09/07 03:12:39;;;;;;;9.55;7.20;;;;;;;;;;2081060;28;20038;-57
2023/09/07 03:13:39;;;;;;;8.93;7.65;;;;;;;;;;2089549;28;20029;-57
2023/09/07 03:14:42;;;;;;;10.98;7.00;;;;;;;;;;2089308;28;20037;-57
2023/09/07 03:15:44;;;;;;;9.57;7.38;;;;;;;;;;2090316;28;20045;-58
2023/09/07 03:16:50;;;;;;;12.05;8.35;;;;;;;;;;2089652;28;20033;-58
2023/09/07 03:17:50;;;;;;;10.52;7.68;;;;;;;;;;2081533;28;20041;-57
2023/09/07 03:18:51;;;;;;;10.95;7.97;;;;;;;;;;2081313;28;20041;-58
2023/09/07 03:19:52;;;;;;;9.30;7.80;;;;;;;;;;2089707;28;20041;-58
2023/09/07 03:20:54;;;;;;;11.02;8.00;;;;;;;;;;2089992;28;20045;-58
2023/09/07 03:21:55;;;;;;;10.73;8.13;;;;;;;;;;2089533;28;20044;-58
2023/09/07 03:22:56;;;;;;;8.48;7.32;;;;;;;;;;2081286;28;20044;-58
2023/09/07 03:23:57;;;;;;;10.02;7.50;;;;;;;;;;2089203;28;20049;-58
2023/09/07 03:24:58;;;;;;;9.63;7.40;;;;;;;;;;2089200;28;20048;-58
2023/09/07 03:25:59;;;;;;;10.70;7.78;;;;;;;;;;2089470;28;20041;-58
2023/09/07 03:27:00;;;;;;;10.00;7.50;;;;;;;;;;2081250;28;20045;-58
2023/09/07 03:28:00;;;;;;;10.80;8.40;;;;;;;;;;2089529;28;20420;-58
2023/09/07 03:29:01;;;;;;;9.57;7.70;;;;;;;;;;2089222;28;20564;-58
2023/09/07 03:30:03;;;;;;;11.77;7.07;;;;;;;;;;2089473;28;20041;-58
2023/09/07 03:31:04;;;;;;;9.15;7.50;;;;;;;;;;2089669;28;20048;-58
2023/09/07 03:32:06;;;;;;;10.93;7.63;;;;;;;;;;2097904;28;20503;-58
2023/09/07 03:33:06;;;;;;;13.88;7.65;;;;;;;;;;2089122;28;20448;-58
2023/09/07 03:34:07;;;;;;;9.23;7.75;;;;;;;;;;2081274;28;20076;-57
2023/09/07 03:35:10;;;;;;;13.40;8.60;;;;;;;;;;2090530;28;20162;-58
2023/09/07 03:36:13;;;;;;;12.07;8.25;;;;;;;;;;2091895;28;20044;-58
2023/09/07 03:37:14;;;;;;;11.27;7.93;;;;;;;;;;2091424;28;20044;-58
2023/09/07 03:38:15;;;;;;;11.02;7.28;;;;;;;;;;2091089;28;20040;-58
2023/09/07 03:39:17;;;;;;;11.05;8.15;;;;;;;;;;2091439;28;20481;-57
2023/09/07 03:40:18;;;;;;;12.88;7.85;;;;;;;;;;2083036;28;20037;-57
2023/09/07 03:41:19;;;;;;;9.80;8.02;;;;;;;;;;2082854;28;20076;-57
2023/09/07 03:42:19;;;;;;;11.43;7.80;;;;;;;;;;2091479;28;20041;-57
2023/09/07 03:43:20;;;;;;;10.30;8.20;;;;;;;;;;2091358;28;20118;-58
2023/09/07 03:44:21;;;;;;;11.75;7.80;;;;;;;;;;2082852;28;20037;-58
2023/09/07 03:45:22;;;;;;;11.13;8.25;;;;;;;;;;2082573;28;20475;-58
2023/09/07 03:46:23;;;;;;;10.00;8.32;;;;;;;;;;2083099;28;20049;-58
2023/09/07 03:47:28;;;;;;;13.32;8.55;;;;;;;;;;2082765;28;20151;-58
2023/09/07 03:48:29;;;;;;;10.68;7.50;;;;;;;;;;2083535;28;20060;-58
2023/09/07 03:49:30;;;;;;;11.30;9.02;;;;;;;;;;2090847;28;20056;-58
2023/09/07 03:50:31;;;;;;;12.77;8.68;;;;;;;;;;2091152;28;20037;-58
2023/09/07 03:51:31;;;;;;;15.57;9.63;;;;;;;;;;2090943;28;20044;-58
2023/09/07 03:52:32;;;;;;;11.40;9.15;;;;;;;;;;2099385;28;20460;-58
2023/09/07 03:53:35;;;;;;;11.90;9.27;;;;;;;;;;2090621;28;20052;-58
2023/09/07 03:54:35;;;;;;;12.57;9.38;;;;;;;;;;2091127;28;20496;-58
2023/09/07 03:55:40;;;;;;;12.15;9.00;;;;;;;;;;2090994;28;20036;-58
2023/09/07 03:56:40;;;;;;;10.52;9.20;;;;;;;;;;2090672;28;20033;-58
2023/09/07 03:57:43;;;;;;;12.50;9.07;;;;;;;;;;2082349;28;20040;-59
2023/09/07 03:58:44;;;;;;;12.57;9.75;;;;;;;;;;2090192;28;20444;-58
2023/09/07 03:59:45;;;;;;;10.05;8.65;;;;;;;;;;2098934;28;20084;-58
2023/09/07 04:00:46;;;;;;;12.15;9.20;;;;;;;;;;2091387;28;20033;-58
2023/09/07 04:01:48;;;;;;;10.40;8.43;;;;;;;;;;2082745;28;20037;-58
2023/09/07 04:02:49;;;;;;;11.32;9.18;;;;;;;;;;2082759;28;20041;-58
2023/09/07 04:03:50;;;;;;;10.07;8.80;;;;;;;;;;2091265;28;20389;-58
2023/09/07 04:04:51;;;;;;;11.02;9.68;;;;;;;;;;2083128;28;20036;-58
2023/09/07 04:05:52;;;;;;;13.70;9.88;;;;;;;;;;2090572;28;20033;-59
2023/09/07 04:06:53;;;;;;;10.63;9.13;;;;;;;;;;2098487;28;20033;-59
2023/09/07 04:07:54;;;;;;;11.85;10.13;;;;;;;;;;2091282;28;20041;-58
2023/09/07 04:08:54;;;;;;;17.67;10.52;;;;;;;;;;2082328;28;20049;-58
2023/09/07 04:09:56;;;;;;;14.10;10.65;;;;;;;;;;2091104;28;20033;-58
2023/09/07 04:10:56;;;;;;;12.75;9.38;;;;;;;;;;2090695;28;20504;-58
2023/09/07 04:11:57;;;;;;;12.73;9.60;;;;;;;;;;2091472;28;20068;-58
2023/09/07 04:12:58;;;;;;;12.75;10.10;;;;;;;;;;2091397;28;20104;-58
2023/09/07 04:13:59;;;;;;;14.75;9.73;;;;;;;;;;2091454;28;20033;-58
2023/09/07 04:15:01;;;;;;;11.85;9.65;;;;;;;;;;2090981;28;20028;-58
2023/09/07 04:16:02;;;;;;;11.15;9.70;;;;;;;;;;2082746;28;20033;-58
2023/09/07 04:17:03;;;;;;;14.95;9.95;;;;;;;;;;2082306;28;20033;-58
2023/09/07 04:18:04;;;;;;;14.07;9.60;;;;;;;;;;2082631;28;20120;-58
2023/09/07 04:19:04;;;;;;;14.75;10.25;;;;;;;;;;2090817;28;20074;-58
2023/09/07 04:20:09;;;;;;;12.10;9.27;;;;;;;;;;2090948;28;20424;-58
2023/09/07 04:21:10;;;;;;;13.48;9.98;;;;;;;;;;2082526;28;20037;-58
2023/09/07 04:22:11;;;;;;;12.00;10.60;;;;;;;;;;2081852;28;20050;-59
2023/09/07 04:23:12;;;;;;;14.70;11.05;;;;;;;;;;2090680;28;20437;-59
2023/09/07 04:24:12;;;;;;;13.50;10.75;;;;;;;;;;2098743;28;20067;-58
2023/09/07 04:25:13;;;;;;;13.55;9.40;;;;;;;;;;2089842;28;20053;-58
2023/09/07 04:26:14;;;;;;;13.18;9.98;;;;;;;;;;2090589;28;20052;-58
2023/09/07 04:27:15;;;;;;;12.60;10.38;;;;;;;;;;2091377;28;20036;-58
2023/09/07 04:28:15;;;;;;;13.27;9.32;;;;;;;;;;2090142;28;20045;-59
2023/09/07 04:29:16;;;;;;;14.50;10.63;;;;;;;;;;2091073;28;20037;-58
2023/09/07 04:30:17;;;;;;;13.43;9.77;;;;;;;;;;2090291;28;20064;-58
2023/09/07 04:31:18;;;;;;;13.15;9.88;;;;;;;;;;2090756;28;20128;-58
2023/09/07 04:32:19;;;;;;;13.70;9.98;;;;;;;;;;2091007;28;20049;-58
2023/09/07 04:33:19;;;;;;;16.00;11.07;;;;;;;;;;2090291;28;20043;-58
2023/09/07 04:34:21;;;;;;;13.85;10.70;;;;;;;;;;2090456;28;20033;-58
2023/09/07 04:35:26;;;;;;;11.85;10.45;;;;;;;;;;2090686;28;20063;-58
2023/09/07 04:36:27;;;;;;;13.02;10.90;;;;;;;;;;2090445;28;20044;-58
2023/09/07 04:37:27;;;;;;;11.80;9.77;;;;;;;;;;2098331;28;20051;-58
2023/09/07 04:38:28;;;;;;;11.82;10.00;;;;;;;;;;2090631;28;20033;-58
2023/09/07 04:39:29;;;;;;;17.48;10.40;;;;;;;;;;2090558;28;20575;-58
2023/09/07 04:40:30;;;;;;;17.23;10.10;;;;;;;;;;2091250;28;20040;-58
2023/09/07 04:41:30;;;;;;;15.13;10.05;;;;;;;;;;2090302;28;20045;-58
2023/09/07 04:42:31;;;;;;;12.05;10.50;;;;;;;;;;2081950;28;20041;-58
2023/09/07 04:43:32;;;;;;;12.95;10.20;;;;;;;;;;2090631;28;20076;-58
2023/09/07 04:44:33;;;;;;;14.38;11.73;;;;;;;;;;2090525;28;20039;-58
2023/09/07 04:45:34;;;;;;;13.43;11.32;;;;;;;;;;2082502;28;20063;-58
2023/09/07 04:46:35;;;;;;;15.20;11.05;;;;;;;;;;2089237;28;20052;-58
2023/09/07 04:47:36;;;;;;;16.20;11.48;;;;;;;;;;2090553;28;20044;-58
2023/09/07 04:48:38;;;;;;;17.80;11.73;;;;;;;;;;2090207;28;20056;-58
2023/09/07 04:49:38;;;;;;;13.40;10.80;;;;;;;;;;2082010;28;20053;-58
2023/09/07 04:50:39;;;;;;;14.32;10.43;;;;;;;;;;2090433;28;20033;-58
2023/09/07 04:51:40;;;;;;;12.95;10.27;;;;;;;;;;2090356;28;20041;-58
2023/09/07 04:52:40;;;;;;;12.50;10.05;;;;;;;;;;2090250;28;20044;-58
2023/09/07 04:53:41;;;;;;;12.63;10.07;;;;;;;;;;2090275;28;20141;-58
2023/09/07 04:54:43;;;;;;;14.15;9.98;;;;;;;;;;2089591;28;20033;-59
2023/09/07 04:55:44;;;;;;;11.15;9.93;;;;;;;;;;2090537;28;20037;-58
2023/09/07 04:56:44;;;;;;;11.77;10.00;;;;;;;;;;2090824;28;20036;-58
2023/09/07 04:57:48;;;;;;;10.23;8.65;;;;;;;;;;2082749;28;20026;-58
2023/09/07 04:58:48;;;;;;;10.93;9.23;;;;;;;;;;2089457;28;20033;-59
2023/09/07 04:59:49;;;;;;;11.68;8.50;;;;;;;;;;2090479;28;20056;-58
2023/09/07 05:00:50;;;;;;;10.60;8.38;;;;;;;;;;2090620;28;20025;-58
2023/09/07 05:01:51;;;;;;;11.80;8.52;;;;;;;;;;2090623;28;20033;-59
2023/09/07 05:02:51;;;;;;;9.90;7.85;;;;;;;;;;2089534;28;20037;-58
2023/09/07 05:03:54;;;;;;;12.77;8.75;;;;;;;;;;2091051;28;20048;-58
2023/09/07 05:04:54;;;;;;;10.63;8.27;;;;;;;;;;2091114;28;20029;-58
2023/09/07 05:05:56;;;;;;;12.88;8.15;;;;;;;;;;2090706;28;20044;-59
2023/09/07 05:06:56;;;;;;;10.70;7.97;;;;;;;;;;2082635;28;20452;-58
2023/09/07 05:07:57;;;;;;;10.13;7.43;;;;;;;;;;2090107;28;20127;-59
2023/09/07 05:08:58;;;;;;;10.90;8.63;;;;;;;;;;2090419;28;20075;-59
2023/09/07 05:09:59;;;;;;;8.43;7.47;;;;;;;;;;2090433;28;20045;-59
2023/09/07 05:11:00;;;;;;;11.45;7.50;;;;;;;;;;2089602;28;20037;-58
2023/09/07 05:12:01;;;;;;;10.20;7.97;;;;;;;;;;2090195;28;20488;-59
2023/09/07 05:13:02;;;;;;;9.25;7.32;;;;;;;;;;2098159;28;20076;-59
2023/09/07 05:14:03;;;;;;;11.57;8.55;;;;;;;;;;2090254;28;20048;-59
2023/09/07 05:15:06;;;;;;;10.70;8.10;;;;;;;;;;2081810;28;20049;-59
2023/09/07 05:16:07;;;;;;;9.75;7.13;;;;;;;;;;2090398;28;20036;-59
2023/09/07 05:17:10;;;;;;;10.95;7.50;;;;;;;;;;2090290;28;20037;-58
2023/09/07 05:18:10;;;;;;;11.88;7.15;;;;;;;;;;2082126;28;20037;-59
2023/09/07 05:19:11;;;;;;;8.63;6.85;;;;;;;;;;2090665;28;20063;-59
2023/09/07 05:20:12;;;;;;;7.72;6.93;;;;;;;;;;2090908;28;20426;-59
2023/09/07 05:21:13;;;;;;;8.30;6.88;;;;;;;;;;2089290;28;20473;-59
2023/09/07 05:22:14;;;;;;;10.00;7.45;;;;;;;;;;2090086;28;20056;-59
2023/09/07 05:23:15;;;;;;;11.40;7.03;;;;;;;;;;2090360;28;20111;-59
2023/09/07 05:24:16;;;;;;;10.18;7.47;;;;;;;;;;2082578;28;20041;-59
2023/09/07 05:25:19;;;;;;;9.63;6.75;;;;;;;;;;2081811;28;20383;-58
2023/09/07 05:26:25;;;;;;;8.02;6.80;;;;;;;;;;2081879;28;20084;-59
2023/09/07 05:27:27;;;;;;;10.38;7.55;;;;;;;;;;2084147;28;20053;-59
2023/09/07 05:28:27;;;;;;;9.02;6.75;;;;;;;;;;2098544;28;20056;-59
2023/09/07 05:29:30;;;;;;;10.93;7.47;;;;;;;;;;2089943;28;20052;-59
2023/09/07 05:30:31;;;;;;;8.73;6.90;;;;;;;;;;2090434;28;20140;-59
2023/09/07 05:31:31;;;;;;;10.77;7.32;;;;;;;;;;2090563;28;20037;-59
2023/09/07 05:32:32;;;;;;;8.05;6.25;;;;;;;;;;2090287;28;20393;-59
2023/09/07 05:33:33;;;;;;;11.10;6.95;;;;;;;;;;2090703;28;20096;-59
2023/09/07 05:34:34;;;;;;;10.40;7.20;;;;;;;;;;2082804;28;20045;-60
2023/09/07 05:35:35;;;;;;;11.63;7.72;;;;;;;;;;2081883;28;20060;-58
2023/09/07 05:36:36;;;;;;;8.40;7.53;;;;;;;;;;2081612;28;20474;-58
2023/09/07 05:37:37;;;;;;;12.45;7.10;;;;;;;;;;2081890;28;20052;-59
2023/09/07 05:38:38;;;;;;;11.20;7.65;;;;;;;;;;2090272;28;20538;-59
2023/09/07 05:39:38;;;;;;;11.30;7.55;;;;;;;;;;2089884;28;20408;-59
2023/09/07 05:40:40;;;;;;;8.43;6.30;;;;;;;;;;2089922;28;20040;-59
2023/09/07 05:41:41;;;;;;;9.63;6.85;;;;;;;;;;2090206;28;20401;-59
2023/09/07 05:42:41;;;;;;;11.88;6.72;;;;;;;;;;2081467;28;20037;-58
2023/09/07 05:43:42;;;;;;;9.40;7.05;;;;;;;;;;2090160;28;20045;-58
2023/09/07 05:44:43;;;;;;;8.73;7.43;;;;;;;;;;2090130;28;20044;-59
2023/09/07 05:45:43;;;;;;;7.70;6.57;;;;;;;;;;2081969;28;20053;-59
2023/09/07 05:46:47;;;;;;;9.10;7.00;;;;;;;;;;2090143;28;20037;-59
2023/09/07 05:47:48;;;;;;;8.15;6.50;;;;;;;;;;2090508;28;20041;-60
2023/09/07 05:48:49;;;;;;;7.93;6.68;;;;;;;;;;2090212;28;20048;-59
2023/09/07 05:49:50;;;;;;;9.27;7.32;;;;;;;;;;2081991;28;20038;-58
2023/09/07 05:50:51;;;;;;;9.27;6.07;;;;;;;;;;2081634;28;20378;-59
2023/09/07 05:51:51;;;;;;;10.48;7.35;;;;;;;;;;2082010;28;20046;-58
2023/09/07 05:52:52;;;;;;;9.93;6.97;;;;;;;;;;2081865;28;20041;-59
2023/09/07 05:53:55;;;;;;;10.07;7.10;;;;;;;;;;2081750;28;20044;-58
2023/09/07 05:54:56;;;;;;;6.90;6.20;;;;;;;;;;2082081;28;20025;-58
2023/09/07 05:55:56;;;;;;;9.55;6.50;;;;;;;;;;2081807;28;20049;-58
2023/09/07 05:56:57;;;;;;;12.38;6.72;;;;;;;;;;2082072;28;20033;-59
2023/09/07 05:57:58;;;;;;;7.90;5.97;;;;;;;;;;2081654;28;20128;-58
2023/09/07 05:59:00;;;;;;;8.55;7.13;;;;;;;;;;2089775;28;20033;-58
2023/09/07 06:00:01;;;;;;;10.82;6.47;;;;;;;;;;2090088;28;20067;-58
2023/09/07 06:01:04;;;;;;;8.45;6.38;;;;;;;;;;2090042;28;20036;-58
2023/09/07 06:02:05;;;;;;;11.55;6.30;;;;;;;;;;2089627;28;20041;-58
2023/09/07 06:03:06;;;;;;;9.63;7.22;;;;;;;;;;2089400;28;20029;-59
2023/09/07 06:04:07;;;;;;;9.95;6.60;;;;;;;;;;2090011;28;20044;-58